sensor_id;sensor_type;location;lat;lon;timestamp;P1;durP1;ratioP1;P2;durP2;ratioP2
17363;SDS011;8799;43.594;13.526;2024-02-26T00:00:49;9.20;;;3.90;;
17363;SDS011;8799;43.594;13.526;2024-02-26T00:03:16;10.70;;;4.63;;
17363;SDS011;8799;43.594;13.526;2024-02-26T00:05:44;10.70;;;4.30;;
17363;SDS011;8799;43.594;13.526;2024-02-26T00:08:12;12.00;;;4.93;;
17363;SDS011;8799;43.594;13.526;2024-02-26T00:10:43;10.50;;;4.30;;
17363;SDS011;8799;43.594;13.526;2024-02-26T00:13:11;9.00;;;3.53;;
17363;SDS011;8799;43.594;13.526;2024-02-26T00:15:39;8.60;;;3.87;;
17363;SDS011;8799;43.594;13.526;2024-02-26T00:18:07;14.80;;;4.67;;
17363;SDS011;8799;43.594;13.526;2024-02-26T00:20:35;10.03;;;4.30;;
17363;SDS011;8799;43.594;13.526;2024-02-26T00:23:03;7.53;;;3.70;;
17363;SDS011;8799;43.594;13.526;2024-02-26T00:25:31;11.27;;;4.43;;
17363;SDS011;8799;43.594;13.526;2024-02-26T00:28:00;10.93;;;4.40;;
17363;SDS011;8799;43.594;13.526;2024-02-26T00:30:28;10.00;;;4.10;;
17363;SDS011;8799;43.594;13.526;2024-02-26T00:32:56;11.90;;;4.07;;
17363;SDS011;8799;43.594;13.526;2024-02-26T00:35:24;7.30;;;3.40;;
17363;SDS011;8799;43.594;13.526;2024-02-26T00:37:52;11.23;;;3.63;;
17363;SDS011;8799;43.594;13.526;2024-02-26T00:40:19;7.67;;;3.70;;
17363;SDS011;8799;43.594;13.526;2024-02-26T00:42:47;8.70;;;3.50;;
17363;SDS011;8799;43.594;13.526;2024-02-26T00:45:16;12.37;;;3.90;;
17363;SDS011;8799;43.594;13.526;2024-02-26T00:47:44;8.93;;;3.37;;
17363;SDS011;8799;43.594;13.526;2024-02-26T00:50:12;7.47;;;2.80;;
17363;SDS011;8799;43.594;13.526;2024-02-26T00:52:40;7.83;;;3.47;;
17363;SDS011;8799;43.594;13.526;2024-02-26T00:55:08;9.47;;;3.50;;
17363;SDS011;8799;43.594;13.526;2024-02-26T00:57:39;10.40;;;3.83;;
17363;SDS011;8799;43.594;13.526;2024-02-26T01:00:07;5.73;;;2.50;;
17363;SDS011;8799;43.594;13.526;2024-02-26T01:02:36;8.03;;;3.57;;
17363;SDS011;8799;43.594;13.526;2024-02-26T01:05:07;10.23;;;3.03;;
17363;SDS011;8799;43.594;13.526;2024-02-26T01:07:42;7.17;;;3.40;;
17363;SDS011;8799;43.594;13.526;2024-02-26T01:10:10;8.07;;;3.27;;
17363;SDS011;8799;43.594;13.526;2024-02-26T01:12:38;5.83;;;2.60;;
17363;SDS011;8799;43.594;13.526;2024-02-26T01:15:06;8.67;;;2.97;;
17363;SDS011;8799;43.594;13.526;2024-02-26T01:17:36;7.10;;;3.17;;
17363;SDS011;8799;43.594;13.526;2024-02-26T01:20:05;5.10;;;2.63;;
17363;SDS011;8799;43.594;13.526;2024-02-26T01:22:34;6.67;;;3.07;;
17363;SDS011;8799;43.594;13.526;2024-02-26T01:25:02;10.00;;;3.20;;
17363;SDS011;8799;43.594;13.526;2024-02-26T01:27:30;4.37;;;2.30;;
17363;SDS011;8799;43.594;13.526;2024-02-26T01:29:58;7.43;;;2.37;;
17363;SDS011;8799;43.594;13.526;2024-02-26T01:32:28;6.50;;;3.23;;
17363;SDS011;8799;43.594;13.526;2024-02-26T01:34:57;12.53;;;2.60;;
17363;SDS011;8799;43.594;13.526;2024-02-26T01:37:25;5.20;;;2.77;;
17363;SDS011;8799;43.594;13.526;2024-02-26T01:39:54;5.43;;;2.80;;
17363;SDS011;8799;43.594;13.526;2024-02-26T01:42:22;4.80;;;2.57;;
17363;SDS011;8799;43.594;13.526;2024-02-26T01:44:50;10.37;;;2.80;;
17363;SDS011;8799;43.594;13.526;2024-02-26T01:47:18;8.03;;;3.20;;
17363;SDS011;8799;43.594;13.526;2024-02-26T01:49:46;5.00;;;2.60;;
17363;SDS011;8799;43.594;13.526;2024-02-26T01:52:16;5.23;;;2.43;;
17363;SDS011;8799;43.594;13.526;2024-02-26T01:54:44;4.10;;;2.33;;
17363;SDS011;8799;43.594;13.526;2024-02-26T01:57:13;4.97;;;2.20;;
17363;SDS011;8799;43.594;13.526;2024-02-26T01:59:41;4.30;;;2.20;;
17363;SDS011;8799;43.594;13.526;2024-02-26T02:02:08;5.70;;;2.23;;
17363;SDS011;8799;43.594;13.526;2024-02-26T02:04:38;5.90;;;2.23;;
17363;SDS011;8799;43.594;13.526;2024-02-26T02:07:06;5.30;;;2.63;;
17363;SDS011;8799;43.594;13.526;2024-02-26T02:09:36;4.07;;;1.90;;
17363;SDS011;8799;43.594;13.526;2024-02-26T02:12:04;4.37;;;2.10;;
17363;SDS011;8799;43.594;13.526;2024-02-26T02:14:32;8.63;;;2.27;;
17363;SDS011;8799;43.594;13.526;2024-02-26T02:17:00;5.60;;;2.70;;
17363;SDS011;8799;43.594;13.526;2024-02-26T02:19:28;6.10;;;2.53;;
17363;SDS011;8799;43.594;13.526;2024-02-26T02:21:57;5.73;;;2.40;;
17363;SDS011;8799;43.594;13.526;2024-02-26T02:24:25;3.93;;;1.90;;
17363;SDS011;8799;43.594;13.526;2024-02-26T02:26:53;5.20;;;1.73;;
17363;SDS011;8799;43.594;13.526;2024-02-26T02:29:21;6.47;;;2.03;;
17363;SDS011;8799;43.594;13.526;2024-02-26T02:31:49;2.47;;;1.63;;
17363;SDS011;8799;43.594;13.526;2024-02-26T02:34:17;4.80;;;2.07;;
17363;SDS011;8799;43.594;13.526;2024-02-26T02:36:48;3.33;;;1.87;;
17363;SDS011;8799;43.594;13.526;2024-02-26T02:39:17;5.93;;;2.20;;
17363;SDS011;8799;43.594;13.526;2024-02-26T02:41:45;3.40;;;2.10;;
17363;SDS011;8799;43.594;13.526;2024-02-26T02:44:13;2.97;;;1.90;;
17363;SDS011;8799;43.594;13.526;2024-02-26T02:46:41;4.10;;;1.83;;
17363;SDS011;8799;43.594;13.526;2024-02-26T02:49:09;3.07;;;1.70;;
17363;SDS011;8799;43.594;13.526;2024-02-26T02:51:37;3.57;;;1.93;;
17363;SDS011;8799;43.594;13.526;2024-02-26T02:54:05;3.33;;;1.60;;
17363;SDS011;8799;43.594;13.526;2024-02-26T02:56:34;2.77;;;1.67;;
17363;SDS011;8799;43.594;13.526;2024-02-26T02:59:02;3.13;;;1.93;;
17363;SDS011;8799;43.594;13.526;2024-02-26T03:01:29;3.90;;;2.13;;
17363;SDS011;8799;43.594;13.526;2024-02-26T03:03:57;4.53;;;2.00;;
17363;SDS011;8799;43.594;13.526;2024-02-26T03:06:25;3.03;;;1.60;;
17363;SDS011;8799;43.594;13.526;2024-02-26T03:08:53;2.20;;;1.43;;
17363;SDS011;8799;43.594;13.526;2024-02-26T03:11:21;3.23;;;2.00;;
17363;SDS011;8799;43.594;13.526;2024-02-26T03:13:50;2.53;;;1.60;;
17363;SDS011;8799;43.594;13.526;2024-02-26T03:16:18;3.47;;;1.73;;
17363;SDS011;8799;43.594;13.526;2024-02-26T03:18:46;3.10;;;1.80;;
17363;SDS011;8799;43.594;13.526;2024-02-26T03:21:14;3.80;;;2.00;;
17363;SDS011;8799;43.594;13.526;2024-02-26T03:23:42;3.67;;;1.83;;
17363;SDS011;8799;43.594;13.526;2024-02-26T03:26:10;3.27;;;2.03;;
17363;SDS011;8799;43.594;13.526;2024-02-26T03:28:40;3.53;;;1.90;;
17363;SDS011;8799;43.594;13.526;2024-02-26T03:31:09;5.33;;;1.67;;
17363;SDS011;8799;43.594;13.526;2024-02-26T03:33:37;2.30;;;1.47;;
17363;SDS011;8799;43.594;13.526;2024-02-26T03:36:05;3.50;;;1.60;;
17363;SDS011;8799;43.594;13.526;2024-02-26T03:38:33;4.57;;;1.70;;
17363;SDS011;8799;43.594;13.526;2024-02-26T03:41:01;1.87;;;1.40;;
17363;SDS011;8799;43.594;13.526;2024-02-26T03:43:29;2.43;;;1.50;;
17363;SDS011;8799;43.594;13.526;2024-02-26T03:45:57;4.60;;;1.93;;
17363;SDS011;8799;43.594;13.526;2024-02-26T03:48:26;2.53;;;1.50;;
17363;SDS011;8799;43.594;13.526;2024-02-26T03:50:54;2.90;;;1.70;;
17363;SDS011;8799;43.594;13.526;2024-02-26T03:53:21;1.60;;;1.30;;
17363;SDS011;8799;43.594;13.526;2024-02-26T03:55:49;1.90;;;1.27;;
17363;SDS011;8799;43.594;13.526;2024-02-26T03:58:18;2.13;;;1.63;;
17363;SDS011;8799;43.594;13.526;2024-02-26T04:00:46;2.90;;;1.50;;
17363;SDS011;8799;43.594;13.526;2024-02-26T04:03:14;2.23;;;1.40;;
17363;SDS011;8799;43.594;13.526;2024-02-26T04:05:43;2.50;;;1.60;;
17363;SDS011;8799;43.594;13.526;2024-02-26T04:08:11;3.53;;;1.50;;
17363;SDS011;8799;43.594;13.526;2024-02-26T04:10:39;3.87;;;1.50;;
17363;SDS011;8799;43.594;13.526;2024-02-26T04:13:07;2.27;;;1.57;;
17363;SDS011;8799;43.594;13.526;2024-02-26T04:15:36;2.60;;;1.50;;
17363;SDS011;8799;43.594;13.526;2024-02-26T04:18:04;2.87;;;1.53;;
17363;SDS011;8799;43.594;13.526;2024-02-26T04:20:32;2.33;;;1.53;;
17363;SDS011;8799;43.594;13.526;2024-02-26T04:23:02;2.37;;;1.57;;
17363;SDS011;8799;43.594;13.526;2024-02-26T04:25:29;2.23;;;1.50;;
17363;SDS011;8799;43.594;13.526;2024-02-26T04:27:57;1.97;;;1.30;;
17363;SDS011;8799;43.594;13.526;2024-02-26T04:30:25;2.93;;;1.57;;
17363;SDS011;8799;43.594;13.526;2024-02-26T04:32:53;4.03;;;1.70;;
17363;SDS011;8799;43.594;13.526;2024-02-26T04:35:20;2.53;;;1.47;;
17363;SDS011;8799;43.594;13.526;2024-02-26T04:37:48;5.03;;;1.50;;
17363;SDS011;8799;43.594;13.526;2024-02-26T04:40:17;4.60;;;1.80;;
17363;SDS011;8799;43.594;13.526;2024-02-26T04:42:46;2.07;;;1.57;;
17363;SDS011;8799;43.594;13.526;2024-02-26T04:45:14;2.20;;;1.40;;
17363;SDS011;8799;43.594;13.526;2024-02-26T04:47:42;2.73;;;1.43;;
17363;SDS011;8799;43.594;13.526;2024-02-26T04:50:09;3.23;;;1.70;;
17363;SDS011;8799;43.594;13.526;2024-02-26T04:52:37;2.10;;;1.13;;
17363;SDS011;8799;43.594;13.526;2024-02-26T04:55:05;2.30;;;1.43;;
17363;SDS011;8799;43.594;13.526;2024-02-26T04:57:34;2.57;;;1.40;;
17363;SDS011;8799;43.594;13.526;2024-02-26T05:00:03;2.27;;;1.60;;
17363;SDS011;8799;43.594;13.526;2024-02-26T05:02:30;2.50;;;1.63;;
17363;SDS011;8799;43.594;13.526;2024-02-26T05:04:58;2.70;;;1.53;;
17363;SDS011;8799;43.594;13.526;2024-02-26T05:07:26;2.87;;;1.63;;
17363;SDS011;8799;43.594;13.526;2024-02-26T05:09:53;2.50;;;1.50;;
17363;SDS011;8799;43.594;13.526;2024-02-26T05:12:21;2.80;;;1.57;;
17363;SDS011;8799;43.594;13.526;2024-02-26T05:14:50;7.10;;;1.20;;
17363;SDS011;8799;43.594;13.526;2024-02-26T05:17:18;2.33;;;1.30;;
17363;SDS011;8799;43.594;13.526;2024-02-26T05:19:49;2.63;;;1.37;;
17363;SDS011;8799;43.594;13.526;2024-02-26T05:22:17;2.53;;;1.63;;
17363;SDS011;8799;43.594;13.526;2024-02-26T05:24:45;2.33;;;1.43;;
17363;SDS011;8799;43.594;13.526;2024-02-26T05:27:13;3.17;;;1.50;;
17363;SDS011;8799;43.594;13.526;2024-02-26T05:29:40;3.20;;;1.77;;
17363;SDS011;8799;43.594;13.526;2024-02-26T05:32:10;1.20;;;0.93;;
17363;SDS011;8799;43.594;13.526;2024-02-26T05:34:38;1.20;;;1.10;;
17363;SDS011;8799;43.594;13.526;2024-02-26T05:37:06;2.20;;;1.97;;
17363;SDS011;8799;43.594;13.526;2024-02-26T05:39:34;2.87;;;1.40;;
17363;SDS011;8799;43.594;13.526;2024-02-26T05:42:02;1.97;;;1.33;;
17363;SDS011;8799;43.594;13.526;2024-02-26T05:44:29;2.03;;;1.30;;
17363;SDS011;8799;43.594;13.526;2024-02-26T05:46:57;1.33;;;1.23;;
17363;SDS011;8799;43.594;13.526;2024-02-26T05:49:30;1.53;;;1.03;;
17363;SDS011;8799;43.594;13.526;2024-02-26T05:51:58;1.80;;;1.40;;
17363;SDS011;8799;43.594;13.526;2024-02-26T05:54:26;3.10;;;1.23;;
17363;SDS011;8799;43.594;13.526;2024-02-26T05:56:54;3.03;;;1.17;;
17363;SDS011;8799;43.594;13.526;2024-02-26T05:59:22;1.90;;;1.30;;
17363;SDS011;8799;43.594;13.526;2024-02-26T06:01:50;1.37;;;1.20;;
17363;SDS011;8799;43.594;13.526;2024-02-26T06:04:17;2.10;;;1.50;;
17363;SDS011;8799;43.594;13.526;2024-02-26T06:06:46;1.07;;;0.93;;
17363;SDS011;8799;43.594;13.526;2024-02-26T06:09:14;3.93;;;1.50;;
17363;SDS011;8799;43.594;13.526;2024-02-26T06:11:41;3.73;;;1.30;;
17363;SDS011;8799;43.594;13.526;2024-02-26T06:14:09;1.83;;;1.40;;
17363;SDS011;8799;43.594;13.526;2024-02-26T06:16:39;2.23;;;1.20;;
17363;SDS011;8799;43.594;13.526;2024-02-26T06:19:07;2.20;;;1.40;;
17363;SDS011;8799;43.594;13.526;2024-02-26T06:21:35;3.70;;;1.57;;
17363;SDS011;8799;43.594;13.526;2024-02-26T06:24:05;3.77;;;1.87;;
17363;SDS011;8799;43.594;13.526;2024-02-26T06:26:32;2.90;;;1.73;;
17363;SDS011;8799;43.594;13.526;2024-02-26T06:29:00;5.03;;;2.00;;
17363;SDS011;8799;43.594;13.526;2024-02-26T06:31:28;2.80;;;1.60;;
17363;SDS011;8799;43.594;13.526;2024-02-26T06:33:56;2.37;;;1.73;;
17363;SDS011;8799;43.594;13.526;2024-02-26T06:36:24;2.30;;;2.00;;
17363;SDS011;8799;43.594;13.526;2024-02-26T06:38:52;2.60;;;1.90;;
17363;SDS011;8799;43.594;13.526;2024-02-26T06:41:22;5.50;;;1.80;;
17363;SDS011;8799;43.594;13.526;2024-02-26T06:43:55;3.87;;;2.17;;
17363;SDS011;8799;43.594;13.526;2024-02-26T06:46:22;3.20;;;1.83;;
17363;SDS011;8799;43.594;13.526;2024-02-26T06:48:51;2.73;;;1.90;;
17363;SDS011;8799;43.594;13.526;2024-02-26T06:51:18;3.27;;;2.40;;
17363;SDS011;8799;43.594;13.526;2024-02-26T06:53:46;8.37;;;6.13;;
17363;SDS011;8799;43.594;13.526;2024-02-26T06:56:14;12.27;;;6.27;;
17363;SDS011;8799;43.594;13.526;2024-02-26T06:58:44;6.77;;;5.40;;
17363;SDS011;8799;43.594;13.526;2024-02-26T07:01:12;8.77;;;5.77;;
17363;SDS011;8799;43.594;13.526;2024-02-26T07:03:40;8.07;;;4.80;;
17363;SDS011;8799;43.594;13.526;2024-02-26T07:06:08;5.93;;;4.73;;
17363;SDS011;8799;43.594;13.526;2024-02-26T07:08:38;8.80;;;7.43;;
17363;SDS011;8799;43.594;13.526;2024-02-26T07:11:07;12.10;;;10.47;;
17363;SDS011;8799;43.594;13.526;2024-02-26T07:13:35;14.47;;;10.50;;
17363;SDS011;8799;43.594;13.526;2024-02-26T07:16:05;12.30;;;8.97;;
17363;SDS011;8799;43.594;13.526;2024-02-26T07:18:33;13.67;;;7.40;;
17363;SDS011;8799;43.594;13.526;2024-02-26T07:21:01;12.00;;;6.83;;
17363;SDS011;8799;43.594;13.526;2024-02-26T07:23:29;9.10;;;5.77;;
17363;SDS011;8799;43.594;13.526;2024-02-26T07:25:57;8.60;;;5.20;;
17363;SDS011;8799;43.594;13.526;2024-02-26T07:28:28;7.93;;;5.30;;
17363;SDS011;8799;43.594;13.526;2024-02-26T07:30:56;7.13;;;4.80;;
17363;SDS011;8799;43.594;13.526;2024-02-26T07:33:25;6.00;;;3.77;;
17363;SDS011;8799;43.594;13.526;2024-02-26T07:35:53;6.60;;;4.30;;
17363;SDS011;8799;43.594;13.526;2024-02-26T07:38:21;5.47;;;3.20;;
17363;SDS011;8799;43.594;13.526;2024-02-26T07:40:49;6.33;;;2.97;;
17363;SDS011;8799;43.594;13.526;2024-02-26T07:43:17;3.77;;;2.23;;
17363;SDS011;8799;43.594;13.526;2024-02-26T07:45:44;7.33;;;2.50;;
17363;SDS011;8799;43.594;13.526;2024-02-26T07:48:12;4.87;;;2.43;;
17363;SDS011;8799;43.594;13.526;2024-02-26T07:50:42;5.43;;;2.10;;
17363;SDS011;8799;43.594;13.526;2024-02-26T07:53:10;5.33;;;2.37;;
17363;SDS011;8799;43.594;13.526;2024-02-26T07:55:38;4.17;;;2.30;;
17363;SDS011;8799;43.594;13.526;2024-02-26T07:58:06;4.97;;;2.00;;
17363;SDS011;8799;43.594;13.526;2024-02-26T08:00:33;6.60;;;3.00;;
17363;SDS011;8799;43.594;13.526;2024-02-26T08:03:01;4.57;;;2.43;;
17363;SDS011;8799;43.594;13.526;2024-02-26T08:05:29;6.83;;;3.03;;
17363;SDS011;8799;43.594;13.526;2024-02-26T08:07:59;4.23;;;3.10;;
17363;SDS011;8799;43.594;13.526;2024-02-26T08:10:27;6.90;;;2.67;;
17363;SDS011;8799;43.594;13.526;2024-02-26T08:12:55;6.80;;;2.97;;
17363;SDS011;8799;43.594;13.526;2024-02-26T08:15:30;6.43;;;3.20;;
17363;SDS011;8799;43.594;13.526;2024-02-26T08:17:57;7.23;;;2.97;;
17363;SDS011;8799;43.594;13.526;2024-02-26T08:20:27;5.93;;;3.10;;
17363;SDS011;8799;43.594;13.526;2024-02-26T08:22:54;6.77;;;3.73;;
17363;SDS011;8799;43.594;13.526;2024-02-26T08:25:24;7.20;;;3.67;;
17363;SDS011;8799;43.594;13.526;2024-02-26T08:27:51;8.00;;;4.27;;
17363;SDS011;8799;43.594;13.526;2024-02-26T08:30:19;8.60;;;4.07;;
17363;SDS011;8799;43.594;13.526;2024-02-26T08:32:47;9.27;;;4.10;;
17363;SDS011;8799;43.594;13.526;2024-02-26T08:35:15;9.97;;;3.93;;
17363;SDS011;8799;43.594;13.526;2024-02-26T08:37:44;9.50;;;4.53;;
17363;SDS011;8799;43.594;13.526;2024-02-26T08:40:12;6.27;;;3.63;;
17363;SDS011;8799;43.594;13.526;2024-02-26T08:42:41;7.17;;;4.07;;
17363;SDS011;8799;43.594;13.526;2024-02-26T08:45:09;10.60;;;4.47;;
17363;SDS011;8799;43.594;13.526;2024-02-26T08:47:37;10.83;;;5.03;;
17363;SDS011;8799;43.594;13.526;2024-02-26T08:50:05;8.80;;;4.17;;
17363;SDS011;8799;43.594;13.526;2024-02-26T08:52:34;8.40;;;4.17;;
17363;SDS011;8799;43.594;13.526;2024-02-26T08:55:02;6.73;;;4.07;;
17363;SDS011;8799;43.594;13.526;2024-02-26T08:57:31;7.37;;;3.90;;
17363;SDS011;8799;43.594;13.526;2024-02-26T09:00:01;7.80;;;3.70;;
17363;SDS011;8799;43.594;13.526;2024-02-26T09:02:29;7.93;;;4.47;;
17363;SDS011;8799;43.594;13.526;2024-02-26T09:04:57;7.87;;;4.17;;
17363;SDS011;8799;43.594;13.526;2024-02-26T09:07:24;11.90;;;4.57;;
17363;SDS011;8799;43.594;13.526;2024-02-26T09:09:52;7.50;;;4.07;;
17363;SDS011;8799;43.594;13.526;2024-02-26T09:12:20;8.17;;;4.17;;
17363;SDS011;8799;43.594;13.526;2024-02-26T09:14:48;6.00;;;3.30;;
17363;SDS011;8799;43.594;13.526;2024-02-26T09:17:18;6.23;;;3.67;;
17363;SDS011;8799;43.594;13.526;2024-02-26T09:19:45;6.43;;;3.47;;
17363;SDS011;8799;43.594;13.526;2024-02-26T09:22:13;5.20;;;3.03;;
17363;SDS011;8799;43.594;13.526;2024-02-26T09:24:41;6.77;;;3.47;;
17363;SDS011;8799;43.594;13.526;2024-02-26T09:27:09;5.60;;;3.07;;
17363;SDS011;8799;43.594;13.526;2024-02-26T09:29:36;8.53;;;3.70;;
17363;SDS011;8799;43.594;13.526;2024-02-26T09:32:04;5.97;;;3.00;;
17363;SDS011;8799;43.594;13.526;2024-02-26T09:34:34;7.70;;;3.20;;
17363;SDS011;8799;43.594;13.526;2024-02-26T09:37:02;6.47;;;3.17;;
17363;SDS011;8799;43.594;13.526;2024-02-26T09:39:29;9.40;;;3.27;;
17363;SDS011;8799;43.594;13.526;2024-02-26T09:41:57;6.73;;;3.23;;
17363;SDS011;8799;43.594;13.526;2024-02-26T09:44:25;6.87;;;2.80;;
17363;SDS011;8799;43.594;13.526;2024-02-26T09:46:55;4.47;;;2.50;;
17363;SDS011;8799;43.594;13.526;2024-02-26T09:49:24;5.30;;;2.53;;
17363;SDS011;8799;43.594;13.526;2024-02-26T09:51:53;3.20;;;2.47;;
17363;SDS011;8799;43.594;13.526;2024-02-26T09:54:21;5.43;;;2.90;;
17363;SDS011;8799;43.594;13.526;2024-02-26T09:56:51;5.53;;;2.33;;
17363;SDS011;8799;43.594;13.526;2024-02-26T09:59:21;5.23;;;3.00;;
17363;SDS011;8799;43.594;13.526;2024-02-26T10:01:49;5.20;;;2.77;;
17363;SDS011;8799;43.594;13.526;2024-02-26T10:04:18;3.70;;;2.00;;
17363;SDS011;8799;43.594;13.526;2024-02-26T10:06:46;4.27;;;2.40;;
17363;SDS011;8799;43.594;13.526;2024-02-26T10:09:16;3.47;;;2.27;;
17363;SDS011;8799;43.594;13.526;2024-02-26T10:11:43;3.57;;;2.00;;
17363;SDS011;8799;43.594;13.526;2024-02-26T10:14:11;3.33;;;1.97;;
17363;SDS011;8799;43.594;13.526;2024-02-26T10:16:39;4.47;;;2.60;;
17363;SDS011;8799;43.594;13.526;2024-02-26T10:19:07;3.37;;;1.90;;
17363;SDS011;8799;43.594;13.526;2024-02-26T10:21:35;6.47;;;2.30;;
17363;SDS011;8799;43.594;13.526;2024-02-26T10:24:04;5.40;;;2.27;;
17363;SDS011;8799;43.594;13.526;2024-02-26T10:26:33;5.53;;;2.20;;
17363;SDS011;8799;43.594;13.526;2024-02-26T10:29:01;4.67;;;1.60;;
17363;SDS011;8799;43.594;13.526;2024-02-26T10:31:29;2.63;;;1.63;;
17363;SDS011;8799;43.594;13.526;2024-02-26T10:33:57;4.27;;;1.97;;
17363;SDS011;8799;43.594;13.526;2024-02-26T10:36:25;3.23;;;1.70;;
17363;SDS011;8799;43.594;13.526;2024-02-26T10:38:54;2.07;;;1.43;;
17363;SDS011;8799;43.594;13.526;2024-02-26T10:41:22;5.20;;;1.77;;
17363;SDS011;8799;43.594;13.526;2024-02-26T10:43:51;2.23;;;1.40;;
17363;SDS011;8799;43.594;13.526;2024-02-26T10:46:19;2.43;;;1.43;;
17363;SDS011;8799;43.594;13.526;2024-02-26T10:48:49;3.23;;;1.60;;
17363;SDS011;8799;43.594;13.526;2024-02-26T10:51:18;3.37;;;1.50;;
17363;SDS011;8799;43.594;13.526;2024-02-26T10:53:49;4.23;;;1.60;;
17363;SDS011;8799;43.594;13.526;2024-02-26T10:56:18;1.97;;;1.40;;
17363;SDS011;8799;43.594;13.526;2024-02-26T10:58:47;1.93;;;1.47;;
17363;SDS011;8799;43.594;13.526;2024-02-26T11:01:17;3.03;;;1.40;;
17363;SDS011;8799;43.594;13.526;2024-02-26T11:03:46;4.20;;;2.00;;
17363;SDS011;8799;43.594;13.526;2024-02-26T11:06:14;3.33;;;1.40;;
17363;SDS011;8799;43.594;13.526;2024-02-26T11:08:42;2.30;;;1.37;;
17363;SDS011;8799;43.594;13.526;2024-02-26T11:11:11;2.37;;;1.40;;
17363;SDS011;8799;43.594;13.526;2024-02-26T11:13:40;3.53;;;1.30;;
17363;SDS011;8799;43.594;13.526;2024-02-26T11:16:10;4.17;;;1.80;;
17363;SDS011;8799;43.594;13.526;2024-02-26T11:18:40;1.30;;;0.90;;
17363;SDS011;8799;43.594;13.526;2024-02-26T11:21:10;1.50;;;1.20;;
17363;SDS011;8799;43.594;13.526;2024-02-26T11:23:38;2.17;;;1.30;;
17363;SDS011;8799;43.594;13.526;2024-02-26T11:26:07;2.00;;;1.10;;
17363;SDS011;8799;43.594;13.526;2024-02-26T11:28:36;1.33;;;1.00;;
17363;SDS011;8799;43.594;13.526;2024-02-26T11:31:04;3.20;;;1.30;;
17363;SDS011;8799;43.594;13.526;2024-02-26T11:33:32;1.57;;;1.40;;
17363;SDS011;8799;43.594;13.526;2024-02-26T11:36:02;2.13;;;1.10;;
17363;SDS011;8799;43.594;13.526;2024-02-26T11:38:35;1.83;;;1.20;;
17363;SDS011;8799;43.594;13.526;2024-02-26T11:41:03;3.20;;;1.30;;
17363;SDS011;8799;43.594;13.526;2024-02-26T11:43:51;1.50;;;0.87;;
17363;SDS011;8799;43.594;13.526;2024-02-26T11:46:25;2.97;;;1.40;;
17363;SDS011;8799;43.594;13.526;2024-02-26T11:48:54;2.13;;;1.23;;
17363;SDS011;8799;43.594;13.526;2024-02-26T11:51:26;2.13;;;0.80;;
17363;SDS011;8799;43.594;13.526;2024-02-26T11:53:54;2.23;;;1.00;;
17363;SDS011;8799;43.594;13.526;2024-02-26T11:56:24;2.00;;;0.90;;
17363;SDS011;8799;43.594;13.526;2024-02-26T11:58:56;1.93;;;1.30;;
17363;SDS011;8799;43.594;13.526;2024-02-26T12:01:37;1.70;;;1.07;;
17363;SDS011;8799;43.594;13.526;2024-02-26T12:04:04;1.77;;;1.20;;
17363;SDS011;8799;43.594;13.526;2024-02-26T12:06:41;3.87;;;1.10;;
17363;SDS011;8799;43.594;13.526;2024-02-26T12:09:09;3.63;;;1.40;;
17363;SDS011;8799;43.594;13.526;2024-02-26T12:11:38;1.40;;;0.97;;
17363;SDS011;8799;43.594;13.526;2024-02-26T12:14:09;2.10;;;1.37;;
17363;SDS011;8799;43.594;13.526;2024-02-26T12:16:37;1.83;;;1.20;;
17363;SDS011;8799;43.594;13.526;2024-02-26T12:19:05;3.07;;;1.90;;
17363;SDS011;8799;43.594;13.526;2024-02-26T12:21:34;2.93;;;1.83;;
17363;SDS011;8799;43.594;13.526;2024-02-26T12:24:13;4.50;;;2.70;;
17363;SDS011;8799;43.594;13.526;2024-02-26T12:26:42;3.73;;;2.13;;
17363;SDS011;8799;43.594;13.526;2024-02-26T12:29:10;3.47;;;2.47;;
17363;SDS011;8799;43.594;13.526;2024-02-26T12:31:39;12.17;;;3.00;;
17363;SDS011;8799;43.594;13.526;2024-02-26T12:34:07;9.87;;;2.93;;
17363;SDS011;8799;43.594;13.526;2024-02-26T12:36:36;4.17;;;2.67;;
17363;SDS011;8799;43.594;13.526;2024-02-26T12:39:05;7.53;;;2.63;;
17363;SDS011;8799;43.594;13.526;2024-02-26T12:41:35;6.80;;;3.20;;
17363;SDS011;8799;43.594;13.526;2024-02-26T12:44:03;6.67;;;3.20;;
17363;SDS011;8799;43.594;13.526;2024-02-26T12:46:32;4.23;;;3.07;;
17363;SDS011;8799;43.594;13.526;2024-02-26T12:49:04;5.87;;;3.50;;
17363;SDS011;8799;43.594;13.526;2024-02-26T12:51:32;5.63;;;3.87;;
17363;SDS011;8799;43.594;13.526;2024-02-26T12:54:00;7.07;;;4.40;;
17363;SDS011;8799;43.594;13.526;2024-02-26T12:56:28;6.90;;;4.50;;
17363;SDS011;8799;43.594;13.526;2024-02-26T12:58:58;6.63;;;4.87;;
17363;SDS011;8799;43.594;13.526;2024-02-26T13:01:26;7.50;;;5.03;;
17363;SDS011;8799;43.594;13.526;2024-02-26T13:03:55;7.10;;;5.57;;
17363;SDS011;8799;43.594;13.526;2024-02-26T13:06:23;7.40;;;5.30;;
17363;SDS011;8799;43.594;13.526;2024-02-26T13:08:55;10.37;;;5.60;;
17363;SDS011;8799;43.594;13.526;2024-02-26T13:11:25;12.00;;;5.43;;
17363;SDS011;8799;43.594;13.526;2024-02-26T13:13:54;8.30;;;5.13;;
17363;SDS011;8799;43.594;13.526;2024-02-26T13:16:24;9.53;;;5.23;;
17363;SDS011;8799;43.594;13.526;2024-02-26T13:18:52;7.43;;;4.70;;
17363;SDS011;8799;43.594;13.526;2024-02-26T13:21:19;8.87;;;4.57;;
17363;SDS011;8799;43.594;13.526;2024-02-26T13:23:51;7.43;;;4.77;;
17363;SDS011;8799;43.594;13.526;2024-02-26T13:26:21;7.30;;;4.37;;
17363;SDS011;8799;43.594;13.526;2024-02-26T13:28:59;14.07;;;4.87;;
17363;SDS011;8799;43.594;13.526;2024-02-26T13:31:29;7.87;;;4.60;;
17363;SDS011;8799;43.594;13.526;2024-02-26T13:33:57;13.70;;;4.20;;
17363;SDS011;8799;43.594;13.526;2024-02-26T13:36:25;6.57;;;4.30;;
17363;SDS011;8799;43.594;13.526;2024-02-26T13:38:53;7.63;;;4.00;;
17363;SDS011;8799;43.594;13.526;2024-02-26T13:41:21;8.80;;;3.80;;
17363;SDS011;8799;43.594;13.526;2024-02-26T13:43:49;6.10;;;3.77;;
17363;SDS011;8799;43.594;13.526;2024-02-26T13:46:18;6.57;;;4.10;;
17363;SDS011;8799;43.594;13.526;2024-02-26T13:48:48;7.13;;;4.07;;
17363;SDS011;8799;43.594;13.526;2024-02-26T13:51:16;5.93;;;3.47;;
17363;SDS011;8799;43.594;13.526;2024-02-26T13:53:43;5.60;;;3.37;;
17363;SDS011;8799;43.594;13.526;2024-02-26T13:56:13;5.50;;;3.50;;
17363;SDS011;8799;43.594;13.526;2024-02-26T13:58:42;5.97;;;3.93;;
17363;SDS011;8799;43.594;13.526;2024-02-26T14:01:09;6.97;;;3.47;;
17363;SDS011;8799;43.594;13.526;2024-02-26T14:03:37;5.67;;;3.40;;
17363;SDS011;8799;43.594;13.526;2024-02-26T14:06:07;8.40;;;3.47;;
17363;SDS011;8799;43.594;13.526;2024-02-26T14:08:35;5.53;;;2.60;;
17363;SDS011;8799;43.594;13.526;2024-02-26T14:11:03;5.03;;;2.70;;
17363;SDS011;8799;43.594;13.526;2024-02-26T14:13:31;4.97;;;2.37;;
17363;SDS011;8799;43.594;13.526;2024-02-26T14:15:59;5.40;;;2.57;;
17363;SDS011;8799;43.594;13.526;2024-02-26T14:18:26;4.70;;;2.73;;
17363;SDS011;8799;43.594;13.526;2024-02-26T14:20:54;3.07;;;2.43;;
17363;SDS011;8799;43.594;13.526;2024-02-26T14:23:24;3.60;;;2.67;;
17363;SDS011;8799;43.594;13.526;2024-02-26T14:25:52;5.23;;;2.37;;
17363;SDS011;8799;43.594;13.526;2024-02-26T14:28:21;3.03;;;2.27;;
17363;SDS011;8799;43.594;13.526;2024-02-26T14:30:49;4.47;;;2.03;;
17363;SDS011;8799;43.594;13.526;2024-02-26T14:33:17;3.57;;;2.27;;
17363;SDS011;8799;43.594;13.526;2024-02-26T14:35:45;6.47;;;2.43;;
17363;SDS011;8799;43.594;13.526;2024-02-26T14:38:13;3.83;;;2.20;;
17363;SDS011;8799;43.594;13.526;2024-02-26T14:40:42;3.47;;;2.40;;
17363;SDS011;8799;43.594;13.526;2024-02-26T14:43:10;4.07;;;2.17;;
17363;SDS011;8799;43.594;13.526;2024-02-26T14:45:38;4.80;;;2.10;;
17363;SDS011;8799;43.594;13.526;2024-02-26T14:48:07;5.60;;;2.00;;
17363;SDS011;8799;43.594;13.526;2024-02-26T14:50:36;4.43;;;1.90;;
17363;SDS011;8799;43.594;13.526;2024-02-26T14:53:04;8.10;;;1.87;;